Time;durP1;ratioP1;P1;durP2;ratioP2;P2;SDS_P1;SDS_P2;PMS_P1;PMS_P2;Temp;Humidity;BMP_temperature;BMP_pressure;BME280_temperature;BME280_humidity;BME280_pressure;Samples;Min_cycle;Max_cycle;Signal;HPM_P1;HPM_P2
2023/09/14 00:06:15;;;;;;;;;;;12.80;99.90;;;;;;12416987;28;20055;-35
2023/09/14 00:12:37;;;;;;;;;;;12.60;99.90;;;;;;12419424;28;19990;-35
2023/09/14 00:19:02;;;;;;;;;;;12.70;99.90;;;;;;12421474;28;19945;-36
2023/09/14 00:25:35;;;;;;;;;;;12.80;99.90;;;;;;12438990;28;19929;-35
2023/09/14 00:32:08;;;;;;;;;;;12.90;99.90;;;;;;12430269;28;19981;-35
2023/09/14 00:38:27;;;;;;;;;;;12.90;99.90;;;;;;12341736;28;19966;-36
2023/09/14 00:45:00;;;;;;;;;;;12.90;99.90;;;;;;12325653;28;19926;-35
2023/09/14 00:51:36;;;;;;;;;;;12.90;99.90;;;;;;12328558;28;19985;-35
2023/09/14 00:57:59;;;;;;;;;;;12.90;99.90;;;;;;12326764;28;20021;-35
2023/09/14 01:04:29;;;;;;;;;;;12.70;99.90;;;;;;12328308;28;20264;-35
2023/09/14 01:10:57;;;;;;;;;;;12.70;99.90;;;;;;12328691;28;19931;-35
2023/09/14 01:17:43;;;;;;;;;;;12.60;99.90;;;;;;12319567;28;20454;-35
2023/09/14 01:24:21;;;;;;;;;;;12.50;99.90;;;;;;12269404;28;20005;-35
2023/09/14 01:30:59;;;;;;;;;;;12.30;99.90;;;;;;12321620;28;19934;-35
2023/09/14 01:37:40;;;;;;;;;;;12.40;99.90;;;;;;12381749;28;19925;-35
2023/09/14 01:43:57;;;;;;;;;;;12.40;99.90;;;;;;12371406;28;20032;-36
2023/09/14 01:50:33;;;;;;;;;;;12.50;99.90;;;;;;12377506;28;19934;-35
2023/09/14 01:57:13;;;;;;;;;;;12.50;99.90;;;;;;12384570;28;20362;-35
2023/09/14 02:03:52;;;;;;;;;;;12.40;99.90;;;;;;12388227;28;19973;-35
2023/09/14 02:10:22;;;;;;;;;;;12.20;99.90;;;;;;12381365;28;19932;-35
2023/09/14 02:16:39;;;;;;;;;;;11.90;99.90;;;;;;12386598;28;19984;-35
2023/09/14 02:23:17;;;;;;;;;;;11.90;99.90;;;;;;12380083;28;20651;-35
2023/09/14 02:29:53;;;;;;;;;;;11.80;99.90;;;;;;12372290;28;19969;-35
2023/09/14 02:36:16;;;;;;;;;;;11.90;99.90;;;;;;12376311;23;19925;-82
2023/09/14 02:42:18;;;;;;;;;;;11.40;99.90;;;;;;12329925;28;20212;-83
2023/09/14 02:48:20;;;;;;;;;;;11.50;99.90;;;;;;12350086;28;19975;-83
2023/09/14 02:54:22;;;;;;;;;;;11.70;99.90;;;;;;12349062;28;19929;-83
2023/09/14 03:00:24;;;;;;;;;;;11.30;99.90;;;;;;12357320;28;19988;-83
2023/09/14 03:06:26;;;;;;;;;;;11.40;99.90;;;;;;12355138;28;20588;-83
2023/09/14 03:12:28;;;;;;;;;;;11.50;99.90;;;;;;12356253;28;20362;-83
2023/09/14 03:18:31;;;;;;;;;;;11.60;99.90;;;;;;12350585;28;19936;-83
2023/09/14 03:24:32;;;;;;;;;;;11.50;99.90;;;;;;12357595;28;19984;-83
2023/09/14 03:30:35;;;;;;;;;;;11.50;99.90;;;;;;12324742;28;20785;-83
2023/09/14 03:36:37;;;;;;;;;;;11.40;99.90;;;;;;12341589;28;19929;-82
2023/09/14 03:42:38;;;;;;;;;;;11.50;99.90;;;;;;12343224;28;20408;-83
2023/09/14 03:48:40;;;;;;;;;;;11.30;99.90;;;;;;12344392;28;20029;-84
2023/09/14 03:54:42;;;;;;;;;;;11.10;99.90;;;;;;12344281;28;19926;-83
2023/09/14 04:00:44;;;;;;;;;;;11.20;99.90;;;;;;12368691;28;19941;-83
2023/09/14 04:06:47;;;;;;;;;;;11.10;99.90;;;;;;12360273;28;20028;-83
2023/09/14 04:12:50;;;;;;;;;;;11.20;99.90;;;;;;12339086;28;20033;-83
2023/09/14 04:18:52;;;;;;;;;;;11.20;99.90;;;;;;12349389;28;19929;-83
2023/09/14 04:24:54;;;;;;;;;;;11.00;99.90;;;;;;12354665;28;19976;-83
2023/09/14 04:31:01;;;;;;;;;;;11.00;99.90;;;;;;12343397;28;20040;-83
2023/09/14 04:37:04;;;;;;;;;;;10.60;99.90;;;;;;12355247;28;19930;-83
2023/09/14 04:43:06;;;;;;;;;;;10.50;99.90;;;;;;12359892;28;20421;-84
2023/09/14 04:49:08;;;;;;;;;;;10.50;99.90;;;;;;12341643;28;19929;-84
2023/09/14 04:55:10;;;;;;;;;;;10.50;99.90;;;;;;12351145;28;19929;-83
2023/09/14 05:01:12;;;;;;;;;;;10.30;99.90;;;;;;12344518;28;20548;-83
2023/09/14 05:07:14;;;;;;;;;;;10.60;99.90;;;;;;12345894;28;19934;-83
2023/09/14 05:13:18;;;;;;;;;;;10.90;99.90;;;;;;12354473;28;20012;-83
2023/09/14 05:19:20;;;;;;;;;;;11.00;99.90;;;;;;12345419;28;19929;-82
2023/09/14 05:25:25;;;;;;;;;;;11.20;99.90;;;;;;12344467;28;20049;-83
2023/09/14 05:31:27;;;;;;;;;;;11.30;99.90;;;;;;12347925;28;20771;-83
2023/09/14 05:37:29;;;;;;;;;;;11.30;99.90;;;;;;12338195;28;19936;-83
2023/09/14 05:43:30;;;;;;;;;;;11.40;99.90;;;;;;12358790;28;19932;-83
2023/09/14 05:49:32;;;;;;;;;;;11.50;99.90;;;;;;12336893;28;20215;-83
2023/09/14 05:55:34;;;;;;;;;;;11.60;99.90;;;;;;12336461;28;19945;-83
2023/09/14 06:01:36;;;;;;;;;;;11.60;99.90;;;;;;12361497;28;20384;-83
2023/09/14 06:07:38;;;;;;;;;;;11.60;99.90;;;;;;12340403;28;19972;-83
2023/09/14 06:13:40;;;;;;;;;;;11.80;99.90;;;;;;12353649;28;19969;-83
2023/09/14 06:19:41;;;;;;;;;;;12.00;99.90;;;;;;12350075;28;20018;-83
2023/09/14 06:25:43;;;;;;;;;;;11.90;99.90;;;;;;12328676;28;19965;-83
2023/09/14 06:31:45;;;;;;;;;;;12.20;99.90;;;;;;12361506;28;19930;-84
2023/09/14 06:37:47;;;;;;;;;;;12.30;99.90;;;;;;12353995;28;19930;-83
2023/09/14 06:43:49;;;;;;;;;;;12.50;99.90;;;;;;12352657;28;19926;-83
2023/09/14 06:49:51;;;;;;;;;;;12.60;99.90;;;;;;12339873;28;20008;-83
2023/09/14 06:55:52;;;;;;;;;;;12.80;99.90;;;;;;12343069;28;20476;-83
2023/09/14 07:01:54;;;;;;;;;;;12.90;99.90;;;;;;12359827;28;19925;-84
2023/09/14 07:07:56;;;;;;;;;;;13.10;99.90;;;;;;12333906;28;19934;-84
2023/09/14 07:13:58;;;;;;;;;;;12.80;99.90;;;;;;12352511;28;19937;-85
2023/09/14 07:20:00;;;;;;;;;;;12.80;99.90;;;;;;12352649;28;20010;-85
2023/09/14 07:26:05;;;;;;;;;;;13.00;99.90;;;;;;12337976;28;19929;-84
2023/09/14 07:32:07;;;;;;;;;;;13.10;99.90;;;;;;12344774;28;19929;-85
2023/09/14 07:38:10;;;;;;;;;;;13.20;99.90;;;;;;12382070;28;19921;-85
2023/09/14 07:44:12;;;;;;;;;;;13.40;99.90;;;;;;12402750;28;19936;-85
2023/09/14 07:50:14;;;;;;;;;;;13.50;99.90;;;;;;12355334;28;20018;-85
2023/09/14 07:56:16;;;;;;;;;;;13.60;99.90;;;;;;12329722;28;20486;-85
2023/09/14 08:02:19;;;;;;;;;;;13.70;99.90;;;;;;12338351;28;19929;-85
2023/09/14 08:08:21;;;;;;;;;;;14.00;99.90;;;;;;12356809;28;19930;-85
2023/09/14 08:14:23;;;;;;;;;;;14.00;99.90;;;;;;12345815;28;19929;-85
2023/09/14 08:20:25;;;;;;;;;;;14.40;99.90;;;;;;12349965;28;20029;-85
2023/09/14 08:26:27;;;;;;;;;;;14.40;99.90;;;;;;12324063;28;19940;-85
2023/09/14 08:32:28;;;;;;;;;;;14.90;99.90;;;;;;12336350;28;19930;-85
2023/09/14 08:38:30;;;;;;;;;;;14.50;99.90;;;;;;12264384;28;19953;-84
2023/09/14 08:44:33;;;;;;;;;;;15.20;99.90;;;;;;12250351;28;19930;-85
2023/09/14 08:50:36;;;;;;;;;;;15.80;99.90;;;;;;12267710;28;19934;-84
2023/09/14 08:56:39;;;;;;;;;;;15.80;99.90;;;;;;12255483;28;19938;-85
2023/09/14 09:02:42;;;;;;;;;;;15.50;99.90;;;;;;12254670;28;19931;-85
2023/09/14 09:08:44;;;;;;;;;;;15.60;99.90;;;;;;12260155;28;20402;-85
2023/09/14 09:14:47;;;;;;;;;;;15.90;99.90;;;;;;12261613;28;20354;-86
2023/09/14 09:20:49;;;;;;;;;;;15.90;99.90;;;;;;12266877;28;19969;-84
2023/09/14 09:26:51;;;;;;;;;;;16.40;99.90;;;;;;12251721;28;19965;-82
2023/09/14 09:32:56;;;;;;;;;;;16.90;99.90;;;;;;12259529;28;19926;-84
2023/09/14 09:39:00;;;;;;;;;;;16.40;99.90;;;;;;12345549;28;19991;-84
2023/09/14 09:45:03;;;;;;;;;;;16.00;99.90;;;;;;12345323;28;19953;-84
2023/09/14 09:51:05;;;;;;;;;;;16.20;99.90;;;;;;12351869;28;20807;-84
2023/09/14 09:57:08;;;;;;;;;;;16.00;99.90;;;;;;12351033;28;19930;-84
2023/09/14 10:03:09;;;;;;;;;;;16.00;99.90;;;;;;12335737;28;20330;-84
2023/09/14 10:09:11;;;;;;;;;;;16.20;99.90;;;;;;12333021;28;19937;-84
2023/09/14 10:15:14;;;;;;;;;;;16.20;99.90;;;;;;12339114;28;19944;-84
2023/09/14 10:21:16;;;;;;;;;;;16.00;99.90;;;;;;12336311;28;19940;-84
2023/09/14 10:27:19;;;;;;;;;;;15.80;99.90;;;;;;12328398;28;20313;-83
2023/09/14 10:33:24;;;;;;;;;;;15.70;99.90;;;;;;12346533;28;19929;-84
2023/09/14 10:39:26;;;;;;;;;;;15.90;99.90;;;;;;12337740;28;19945;-84
2023/09/14 10:45:32;;;;;;;;;;;15.70;99.90;;;;;;12354157;28;20412;-84
2023/09/14 10:51:34;;;;;;;;;;;16.20;99.90;;;;;;12348374;28;20063;-84
2023/09/14 10:57:40;;;;;;;;;;;16.80;99.90;;;;;;12330318;28;20926;-84
2023/09/14 11:04:01;;;;;;;;;;;17.10;99.90;;;;;;12327011;28;19936;-84
2023/09/14 11:10:04;;;;;;;;;;;18.10;99.90;;;;;;12360799;28;19929;-85
2023/09/14 11:16:12;;;;;;;;;;;17.70;99.90;;;;;;12367950;28;20000;-83
2023/09/14 11:22:16;;;;;;;;;;;18.40;99.90;;;;;;12352962;28;20436;-84
2023/09/14 11:28:23;;;;;;;;;;;18.90;99.90;;;;;;12344473;28;20019;-85
2023/09/14 11:34:29;;;;;;;;;;;19.60;99.90;;;;;;12359349;28;19996;-84
2023/09/14 11:40:38;;;;;;;;;;;19.90;99.90;;;;;;12349512;28;19936;-84
2023/09/14 11:46:43;;;;;;;;;;;19.80;99.90;;;;;;12365446;28;19925;-86
2023/09/14 11:52:46;;;;;;;;;;;19.30;99.90;;;;;;12368305;28;19929;-85
2023/09/14 11:58:48;;;;;;;;;;;18.90;1.00;;;;;;12348821;28;19973;-84
2023/09/14 12:04:51;;;;;;;;;;;19.10;99.90;;;;;;12366512;28;19980;-84
2023/09/14 12:10:54;;;;;;;;;;;19.50;99.90;;;;;;12344944;28;20370;-84
2023/09/14 12:16:56;;;;;;;;;;;19.70;99.90;;;;;;12371517;28;19933;-83
2023/09/14 12:22:58;;;;;;;;;;;19.60;99.90;;;;;;12372244;28;19930;-83
2023/09/14 12:29:00;;;;;;;;;;;18.90;99.90;;;;;;12379326;28;19937;-84
2023/09/14 12:35:04;;;;;;;;;;;19.20;49.50;;;;;;12370367;28;19937;-85
2023/09/14 12:41:06;;;;;;;;;;;19.60;99.90;;;;;;12374212;28;20230;-86
2023/09/14 12:47:08;;;;;;;;;;;19.50;1.00;;;;;;12364127;28;20384;-85
2023/09/14 12:53:10;;;;;;;;;;;19.90;99.90;;;;;;12382512;28;19935;-86
2023/09/14 12:59:12;;;;;;;;;;;19.60;99.90;;;;;;12370737;28;20028;-85
2023/09/14 13:05:14;;;;;;;;;;;19.30;1.00;;;;;;12354075;28;20053;-86
2023/09/14 13:11:20;;;;;;;;;;;18.70;1.00;;;;;;12357415;28;19933;-85
2023/09/14 13:17:22;;;;;;;;;;;19.10;1.00;;;;;;12374941;28;19937;-86
2023/09/14 13:23:23;;;;;;;;;;;19.50;40.50;;;;;;12364108;28;19929;-86
2023/09/14 13:29:25;;;;;;;;;;;19.40;15.30;;;;;;12373979;28;19976;-85
2023/09/14 13:35:28;;;;;;;;;;;19.70;99.90;;;;;;12345755;28;19934;-85
2023/09/14 13:41:30;;;;;;;;;;;19.20;35.30;;;;;;12377190;28;19937;-85
2023/09/14 13:47:31;;;;;;;;;;;19.10;99.90;;;;;;12378918;28;20985;-85
2023/09/14 13:53:33;;;;;;;;;;;18.70;1.00;;;;;;12364728;28;19929;-85
2023/09/14 13:59:35;;;;;;;;;;;18.60;1.00;;;;;;12373641;28;19930;-85
2023/09/14 14:05:38;;;;;;;;;;;18.50;1.00;;;;;;12365116;28;19935;-86
2023/09/14 14:11:40;;;;;;;;;;;18.20;1.00;;;;;;12346650;28;19930;-84
2023/09/14 14:17:42;;;;;;;;;;;17.90;1.00;;;;;;12359353;28;20143;-84
2023/09/14 14:23:44;;;;;;;;;;;17.50;99.90;;;;;;12358144;28;20395;-85
2023/09/14 14:29:46;;;;;;;;;;;18.00;99.90;;;;;;12354976;28;20117;-85
2023/09/14 14:35:48;;;;;;;;;;;17.70;99.90;;;;;;12356888;28;19934;-85
2023/09/14 14:41:49;;;;;;;;;;;17.80;1.00;;;;;;12364520;28;19937;-84
2023/09/14 14:47:52;;;;;;;;;;;17.50;1.00;;;;;;12371142;28;19933;-85
2023/09/14 14:53:54;;;;;;;;;;;17.70;1.00;;;;;;12367636;28;19933;-84
2023/09/14 14:59:55;;;;;;;;;;;17.40;1.00;;;;;;12342314;28;19937;-85
2023/09/14 15:06:01;;;;;;;;;;;18.00;1.00;;;;;;12362493;28;19934;-85
2023/09/14 15:12:03;;;;;;;;;;;18.60;90.00;;;;;;12355047;28;19930;-85
2023/09/14 15:18:05;;;;;;;;;;;18.80;99.90;;;;;;12367472;28;19933;-84
2023/09/14 15:24:07;;;;;;;;;;;18.80;99.90;;;;;;12346548;28;20068;-84
2023/09/14 15:30:11;;;;;;;;;;;19.20;53.90;;;;;;12366851;28;20382;-84
2023/09/14 15:36:14;;;;;;;;;;;19.80;1.00;;;;;;12360028;28;19952;-85
2023/09/14 15:42:16;;;;;;;;;;;19.90;1.00;;;;;;12358910;28;19929;-84
2023/09/14 15:48:20;;;;;;;;;;;20.10;1.00;;;;;;12348960;28;20383;-84
2023/09/14 15:54:22;;;;;;;;;;;20.00;99.90;;;;;;12384299;28;19925;-85
2023/09/14 16:00:25;;;;;;;;;;;19.50;1.00;;;;;;12374574;28;19964;-85
2023/09/14 16:06:27;;;;;;;;;;;19.80;1.00;;;;;;12374583;28;19931;-85
2023/09/14 16:12:29;;;;;;;;;;;19.50;1.00;;;;;;12367037;28;20007;-84
2023/09/14 16:18:31;;;;;;;;;;;19.70;1.00;;;;;;12367074;28;19979;-85
2023/09/14 16:24:32;;;;;;;;;;;19.90;1.00;;;;;;12385916;28;20020;-85
2023/09/14 16:30:35;;;;;;;;;;;20.00;99.90;;;;;;12364571;28;20000;-85
2023/09/14 16:36:38;;;;;;;;;;;19.90;99.90;;;;;;12359639;28;19934;-85
2023/09/14 16:42:40;;;;;;;;;;;19.90;99.90;;;;;;12355312;28;20574;-84
2023/09/14 16:48:42;;;;;;;;;;;19.70;99.90;;;;;;12351953;28;19930;-84
2023/09/14 16:54:43;;;;;;;;;;;19.30;99.90;;;;;;12381684;28;20366;-84
2023/09/14 17:00:46;;;;;;;;;;;19.00;1.00;;;;;;12354181;28;19965;-85
2023/09/14 17:06:48;;;;;;;;;;;18.90;1.00;;;;;;12356114;28;19930;-85
2023/09/14 17:12:50;;;;;;;;;;;18.40;99.90;;;;;;12370741;28;19930;-84
2023/09/14 17:18:52;;;;;;;;;;;18.20;71.50;;;;;;12367624;28;20279;-84
2023/09/14 17:24:53;;;;;;;;;;;18.00;99.90;;;;;;12378999;28;20467;-84
2023/09/14 17:30:56;;;;;;;;;;;17.30;1.00;;;;;;12378042;28;20063;-84
2023/09/14 17:36:58;;;;;;;;;;;17.10;99.90;;;;;;12382778;28;19933;-84
2023/09/14 17:43:00;;;;;;;;;;;16.70;99.90;;;;;;12369784;28;21185;-83
2023/09/14 17:49:05;;;;;;;;;;;16.30;99.90;;;;;;12370575;28;19937;-83
2023/09/14 17:55:07;;;;;;;;;;;16.00;99.90;;;;;;12355861;28;20462;-83
2023/09/14 18:01:09;;;;;;;;;;;16.00;99.90;;;;;;12364960;28;19934;-83
2023/09/14 18:07:11;;;;;;;;;;;15.80;99.90;;;;;;12359456;28;19957;-83
2023/09/14 18:13:13;;;;;;;;;;;15.60;99.90;;;;;;12378062;28;19968;-84
2023/09/14 18:19:16;;;;;;;;;;;15.20;99.90;;;;;;12366015;28;19957;-83
2023/09/14 18:25:19;;;;;;;;;;;14.90;99.90;;;;;;12364979;28;20040;-83
2023/09/14 18:31:21;;;;;;;;;;;14.90;99.90;;;;;;12384744;28;20016;-83
2023/09/14 18:37:23;;;;;;;;;;;14.70;99.90;;;;;;12377582;28;19933;-83
2023/09/14 18:43:25;;;;;;;;;;;14.50;99.90;;;;;;12371379;28;19937;-83
2023/09/14 18:49:27;;;;;;;;;;;14.30;99.90;;;;;;12355273;28;19936;-84
2023/09/14 18:55:31;;;;;;;;;;;14.30;99.90;;;;;;12341697;28;21036;-84
2023/09/14 19:01:33;;;;;;;;;;;14.10;99.90;;;;;;12355991;28;19929;-85
2023/09/14 19:07:35;;;;;;;;;;;14.00;99.90;;;;;;12333790;28;20935;-85
2023/09/14 19:13:37;;;;;;;;;;;13.80;99.90;;;;;;12367879;28;19981;-84
2023/09/14 19:19:39;;;;;;;;;;;13.70;99.90;;;;;;12355220;28;20017;-84
2023/09/14 19:25:41;;;;;;;;;;;13.70;99.90;;;;;;12392388;28;20441;-84
2023/09/14 19:31:47;;;;;;;;;;;13.60;99.90;;;;;;12387376;28;19929;-85
2023/09/14 19:37:48;;;;;;;;;;;13.80;99.90;;;;;;12352416;28;19981;-85
2023/09/14 19:43:52;;;;;;;;;;;13.80;99.90;;;;;;12349988;28;21274;-84
2023/09/14 19:49:54;;;;;;;;;;;13.80;99.90;;;;;;12370631;28;20495;-84
2023/09/14 19:55:56;;;;;;;;;;;13.80;99.90;;;;;;12351688;28;19930;-84
2023/09/14 20:01:58;;;;;;;;;;;13.70;99.90;;;;;;12353874;28;19955;-84
2023/09/14 20:08:06;;;;;;;;;;;13.70;99.90;;;;;;12353359;28;19937;-83
2023/09/14 20:14:08;;;;;;;;;;;13.60;99.90;;;;;;12368614;28;19953;-84
2023/09/14 20:20:10;;;;;;;;;;;13.40;99.90;;;;;;12363992;28;19930;-83
2023/09/14 20:26:12;;;;;;;;;;;13.30;99.90;;;;;;12360815;28;19932;-84
2023/09/14 20:32:14;;;;;;;;;;;13.20;99.90;;;;;;12363555;28;19952;-84
2023/09/14 20:38:19;;;;;;;;;;;13.20;99.90;;;;;;12375424;28;19934;-83
2023/09/14 20:44:21;;;;;;;;;;;13.30;99.90;;;;;;12376562;28;20009;-83
2023/09/14 20:50:24;;;;;;;;;;;13.40;99.90;;;;;;12368843;28;20078;-83
2023/09/14 20:56:25;;;;;;;;;;;13.40;99.90;;;;;;12366456;28;19984;-83
2023/09/14 21:02:27;;;;;;;;;;;13.30;99.90;;;;;;12376210;28;19936;-84
2023/09/14 21:08:29;;;;;;;;;;;13.20;99.90;;;;;;12374147;28;19934;-83
2023/09/14 21:14:41;;;;;;;;;;;13.20;99.90;;;;;;12363768;28;19933;-83
2023/09/14 21:20:44;;;;;;;;;;;13.10;99.90;;;;;;12364541;28;19968;-83
2023/09/14 21:26:46;;;;;;;;;;;13.20;99.90;;;;;;12384437;28;19936;-84
2023/09/14 21:32:47;;;;;;;;;;;13.20;99.90;;;;;;12369462;28;19969;-83
2023/09/14 21:38:49;;;;;;;;;;;13.10;99.90;;;;;;12354646;28;20898;-83
2023/09/14 21:44:51;;;;;;;;;;;12.90;99.90;;;;;;12358399;28;19941;-83
2023/09/14 21:50:53;;;;;;;;;;;12.90;99.90;;;;;;12377441;28;20362;-83
2023/09/14 21:56:55;;;;;;;;;;;13.00;99.90;;;;;;12365457;28;20587;-84
2023/09/14 22:02:57;;;;;;;;;;;12.90;99.90;;;;;;12364597;28;20020;-83
2023/09/14 22:08:59;;;;;;;;;;;12.80;99.90;;;;;;12370726;28;20275;-83
2023/09/14 22:15:01;;;;;;;;;;;12.90;99.90;;;;;;12365069;28;20017;-83
2023/09/14 22:21:07;;;;;;;;;;;12.70;99.90;;;;;;12355223;28;20012;-84
2023/09/14 22:27:10;;;;;;;;;;;12.90;99.90;;;;;;12364418;28;19985;-84
2023/09/14 22:33:13;;;;;;;;;;;13.00;99.90;;;;;;12357163;28;19934;-84
2023/09/14 22:39:15;;;;;;;;;;;13.00;99.90;;;;;;12383090;28;19934;-84
2023/09/14 22:45:17;;;;;;;;;;;12.90;99.90;;;;;;12372833;28;19933;-84
2023/09/14 22:51:20;;;;;;;;;;;12.80;99.90;;;;;;12340783;28;19938;-84
2023/09/14 22:57:22;;;;;;;;;;;13.00;99.90;;;;;;12358778;28;19961;-84
2023/09/14 23:03:23;;;;;;;;;;;13.20;99.90;;;;;;12374797;28;20049;-84
2023/09/14 23:09:25;;;;;;;;;;;13.10;99.90;;;;;;12368941;28;20275;-84
2023/09/14 23:15:27;;;;;;;;;;;13.20;99.90;;;;;;12364897;28;20547;-83
2023/09/14 23:21:29;;;;;;;;;;;13.10;99.90;;;;;;12363473;28;20059;-83
2023/09/14 23:27:33;;;;;;;;;;;13.00;99.90;;;;;;12362474;28;19976;-83
2023/09/14 23:33:35;;;;;;;;;;;13.00;99.90;;;;;;12352252;28;20009;-83
2023/09/14 23:39:37;;;;;;;;;;;12.90;99.90;;;;;;12353542;28;19984;-83
2023/09/14 23:45:39;;;;;;;;;;;12.80;99.90;;;;;;12351240;28;19941;-83
2023/09/14 23:51:43;;;;;;;;;;;12.80;99.90;;;;;;12333987;28;19965;-83
2023/09/14 23:57:45;;;;;;;;;;;12.60;99.90;;;;;;12342080;28;19930;-83
